Big Bear Station Historical Data
Daily Summary for June 2, 2019 Units:  Both    English   Metric
Next Day »
Daily Weekly Monthly Yearly Custom
  High: Low: Average:
Temperature: 63.9 °F /  17.7 °C 37.9 °F /  3.3 °C 50 °F /  10 °C
Dew Point: 48.1 °F /  8.9 °C 37.6 °F /  3.1 °C 42 °F /  5.6 °C
Humidity: 99% 47% 77%
Wind Speed: 5.8mph /  9.3km/h - 1mph /  1.6km/h
Wind Gust: -999mph /  -1607.7km/h - -
Wind- - West
Pressure: 23.46 in /  794.4 hPa 23.39 in /  792 hPa -
Precipitation: 0.01 in /  0.25 mm    
Historical Graphs
 
 
Tabular Data for June 2, 2019
Time Temperature Dew Point Pressure Wind Wind Speed Wind Gust Humidity Rainfall Rate (Hourly)
00:14 41.9 °F /  5.5 °C 40.8 °F /  4.9 °C 23.42in /  793hPa Calm   -999mph /  -1607.7km/h 96% 0.00in /  0mm
00:30 41.9 °F /  5.5 °C 40.8 °F /  4.9 °C 23.41in /  792.7hPa South 1.1mph /  1.8km/h -999mph /  -1607.7km/h 96% 0.00in /  0mm
00:45 41.5 °F /  5.3 °C 40.4 °F /  4.7 °C 23.41in /  792.7hPa Calm   -999mph /  -1607.7km/h 96% 0.00in /  0mm
01:00 41 °F /  5 °C 39.9 °F /  4.4 °C 23.41in /  792.7hPa Calm   -999mph /  -1607.7km/h 96% 0.00in /  0mm
01:15 40.6 °F /  4.8 °C 39.5 °F /  4.2 °C 23.41in /  792.7hPa Calm   -999mph /  -1607.7km/h 96% 0.00in /  0mm
01:30 40.3 °F /  4.6 °C 39.3 °F /  4.1 °C 23.41in /  792.7hPa Calm   -999mph /  -1607.7km/h 96% 0.00in /  0mm
01:46 39.9 °F /  4.4 °C 39.1 °F /  3.9 °C 23.41in /  792.7hPa Calm   -999mph /  -1607.7km/h 97% 0.00in /  0mm
02:01 39.7 °F /  4.3 °C 38.9 °F /  3.8 °C 23.41in /  792.7hPa Calm   -999mph /  -1607.7km/h 97% 0.00in /  0mm
02:16 39.6 °F /  4.2 °C 39.1 °F /  3.9 °C 23.40in /  792.3hPa Calm   -999mph /  -1607.7km/h 98% 0.00in /  0mm
02:31 39 °F /  3.9 °C 38.5 °F /  3.6 °C 23.40in /  792.3hPa Calm   -999mph /  -1607.7km/h 98% 0.00in /  0mm
02:46 39 °F /  3.9 °C 38.5 °F /  3.6 °C 23.40in /  792.3hPa Calm   -999mph /  -1607.7km/h 98% 0.00in /  0mm
03:02 38.8 °F /  3.8 °C 38.5 °F /  3.6 °C 23.40in /  792.3hPa Calm   -999mph /  -1607.7km/h 99% 0.00in /  0mm
03:17 38.8 °F /  3.8 °C 38.5 °F /  3.6 °C 23.40in /  792.3hPa Calm   -999mph /  -1607.7km/h 99% 0.00in /  0mm
03:32 39 °F /  3.9 °C 38.7 °F /  3.7 °C 23.40in /  792.3hPa Calm   -999mph /  -1607.7km/h 99% 0.00in /  0mm
03:47 38.8 °F /  3.8 °C 38.5 °F /  3.6 °C 23.39in /  792hPa Calm   -999mph /  -1607.7km/h 99% 0.00in /  0mm
04:03 39 °F /  3.9 °C 38.7 °F /  3.7 °C 23.39in /  792hPa Calm   -999mph /  -1607.7km/h 99% 0.00in /  0mm
04:18 38.8 °F /  3.8 °C 38.5 °F /  3.6 °C 23.40in /  792.3hPa Calm   -999mph /  -1607.7km/h 99% 0.00in /  0mm
04:33 38.8 °F /  3.8 °C 38.5 °F /  3.6 °C 23.39in /  792hPa Calm   -999mph /  -1607.7km/h 99% 0.00in /  0mm
04:48 38.8 °F /  3.8 °C 38.5 °F /  3.6 °C 23.40in /  792.3hPa Calm   -999mph /  -1607.7km/h 99% 0.00in /  0mm
05:03 38.7 °F /  3.7 °C 38.4 °F /  3.6 °C 23.39in /  792hPa Calm   -999mph /  -1607.7km/h 99% 0.00in /  0mm
05:19 38.5 °F /  3.6 °C 38.2 °F /  3.4 °C 23.40in /  792.3hPa Calm   -999mph /  -1607.7km/h 99% 0.00in /  0mm
05:34 38.3 °F /  3.5 °C 38 °F /  3.3 °C 23.40in /  792.3hPa Calm   -999mph /  -1607.7km/h 99% 0.00in /  0mm
05:49 38.1 °F /  3.4 °C 37.8 °F /  3.2 °C 23.40in /  792.3hPa Calm   -999mph /  -1607.7km/h 99% 0.00in /  0mm
06:04 37.9 °F /  3.3 °C 37.6 °F /  3.1 °C 23.40in /  792.3hPa Calm   -999mph /  -1607.7km/h 99% 0.00in /  0mm
06:19 37.9 °F /  3.3 °C 37.6 °F /  3.1 °C 23.40in /  792.3hPa Calm   -999mph /  -1607.7km/h 99% 0.00in /  0mm
06:35 38.1 °F /  3.4 °C 37.8 °F /  3.2 °C 23.41in /  792.7hPa Calm   -999mph /  -1607.7km/h 99% 0.00in /  0mm
06:50 39.4 °F /  4.1 °C 39.1 °F /  3.9 °C 23.41in /  792.7hPa Calm   -999mph /  -1607.7km/h 99% 0.00in /  0mm
07:05 39.2 °F /  4 °C 38.9 °F /  3.8 °C 23.41in /  792.7hPa Calm   -999mph /  -1607.7km/h 99% 0.00in /  0mm
07:20 40.3 °F /  4.6 °C 40 °F /  4.4 °C 23.41in /  792.7hPa Calm   -999mph /  -1607.7km/h 99% 0.00in /  0mm
07:35 41 °F /  5 °C 40.7 °F /  4.8 °C 23.41in /  792.7hPa Calm   -999mph /  -1607.7km/h 99% 0.00in /  0mm
07:51 42.6 °F /  5.9 °C 42.3 °F /  5.7 °C 23.41in /  792.7hPa Calm   -999mph /  -1607.7km/h 99% 0.00in /  0mm
08:06 44.1 °F /  6.7 °C 43.8 °F /  6.6 °C 23.42in /  793hPa Calm   -999mph /  -1607.7km/h 99% 0.00in /  0mm
08:21 44.8 °F /  7.1 °C 44.5 °F /  6.9 °C 23.42in /  793hPa Calm   -999mph /  -1607.7km/h 99% 0.00in /  0mm
08:36 45.5 °F /  7.5 °C 45 °F /  7.2 °C 23.42in /  793hPa Calm   -999mph /  -1607.7km/h 98% 0.00in /  0mm
08:51 47.8 °F /  8.8 °C 45.3 °F /  7.4 °C 23.42in /  793hPa Calm   -999mph /  -1607.7km/h 91% 0.00in /  0mm
09:07 50 °F /  10 °C 46.6 °F /  8.1 °C 23.43in /  793.3hPa Calm   -999mph /  -1607.7km/h 88% 0.00in /  0mm
09:22 52.7 °F /  11.5 °C 45.3 °F /  7.4 °C 23.42in /  793hPa Calm   -999mph /  -1607.7km/h 76% 0.00in /  0mm
09:37 55 °F /  12.8 °C 43.9 °F /  6.6 °C 23.43in /  793.3hPa Calm   -999mph /  -1607.7km/h 66% 0.00in /  0mm
09:53 57 °F /  13.9 °C 41 °F /  5 °C 23.42in /  793hPa NNW 5.8mph /  9.3km/h -999mph /  -1607.7km/h 55% 0.00in /  0mm
10:08 57.7 °F /  14.3 °C 39.2 °F /  4 °C 23.42in /  793hPa Calm   -999mph /  -1607.7km/h 50% 0.00in /  0mm
10:23 58.6 °F /  14.8 °C 39.5 °F /  4.2 °C 23.43in /  793.3hPa ESE 1.7mph /  2.7km/h -999mph /  -1607.7km/h 49% 0.00in /  0mm
10:38 60.6 °F /  15.9 °C 42.4 °F /  5.8 °C 23.43in /  793.3hPa NW 4.2mph /  6.8km/h -999mph /  -1607.7km/h 51% 0.00in /  0mm
10:53 59.9 °F /  15.5 °C 39.6 °F /  4.2 °C 23.43in /  793.3hPa Calm   -999mph /  -1607.7km/h 47% 0.00in /  0mm
11:09 59.2 °F /  15.1 °C 43.5 °F /  6.4 °C 23.43in /  793.3hPa Calm   -999mph /  -1607.7km/h 56% 0.00in /  0mm
11:24 61.5 °F /  16.4 °C 45.2 °F /  7.3 °C 23.43in /  793.3hPa NNW 4.7mph /  7.6km/h -999mph /  -1607.7km/h 55% 0.00in /  0mm
11:40 60.1 °F /  15.6 °C 45.7 °F /  7.6 °C 23.44in /  793.7hPa NW 4.7mph /  7.6km/h -999mph /  -1607.7km/h 59% 0.00in /  0mm
11:55 61 °F /  16.1 °C 44.2 °F /  6.8 °C 23.44in /  793.7hPa Calm   -999mph /  -1607.7km/h 54% 0.00in /  0mm
12:10 60.8 °F /  16 °C 45 °F /  7.2 °C 23.44in /  793.7hPa Calm   -999mph /  -1607.7km/h 56% 0.00in /  0mm
12:25 60.3 °F /  15.7 °C 43.1 °F /  6.2 °C 23.44in /  793.7hPa Calm   -999mph /  -1607.7km/h 53% 0.00in /  0mm
12:40 59.7 °F /  15.4 °C 44.9 °F /  7.2 °C 23.44in /  793.7hPa Calm   -999mph /  -1607.7km/h 58% 0.00in /  0mm
12:56 57 °F /  13.9 °C 48.1 °F /  8.9 °C 23.45in /  794hPa WNW 3.7mph /  6km/h -999mph /  -1607.7km/h 72% 0.00in /  0mm
13:11 55.4 °F /  13 °C 47.3 °F /  8.5 °C 23.45in /  794hPa NW 3.2mph /  5.1km/h -999mph /  -1607.7km/h 74% 0.00in /  0mm
13:26 57 °F /  13.9 °C 46.9 °F /  8.3 °C 23.44in /  793.7hPa Calm   -999mph /  -1607.7km/h 69% 0.00in /  0mm
13:41 58.3 °F /  14.6 °C 43.1 °F /  6.2 °C 23.45in /  794hPa Calm   -999mph /  -1607.7km/h 57% 0.00in /  0mm
13:57 59.4 °F /  15.2 °C 43.2 °F /  6.2 °C 23.45in /  794hPa SE 2.2mph /  3.5km/h -999mph /  -1607.7km/h 55% 0.00in /  0mm
14:12 60.3 °F /  15.7 °C 43.1 °F /  6.2 °C 23.44in /  793.7hPa Calm   -999mph /  -1607.7km/h 53% 0.00in /  0mm
14:27 63.5 °F /  17.5 °C 47 °F /  8.3 °C 23.44in /  793.7hPa North 3.2mph /  5.1km/h -999mph /  -1607.7km/h 55% 0.00in /  0mm
14:43 61.9 °F /  16.6 °C 47.9 °F /  8.8 °C 23.43in /  793.3hPa West 5.3mph /  8.5km/h -999mph /  -1607.7km/h 60% 0.00in /  0mm
14:58 60.4 °F /  15.8 °C 47.3 °F /  8.5 °C 23.43in /  793.3hPa North 4.7mph /  7.6km/h -999mph /  -1607.7km/h 62% 0.00in /  0mm
15:14 60.6 °F /  15.9 °C 46.6 °F /  8.1 °C 23.43in /  793.3hPa West 3.2mph /  5.1km/h -999mph /  -1607.7km/h 60% 0.00in /  0mm
15:30 63.3 °F /  17.4 °C 47.3 °F /  8.5 °C 23.43in /  793.3hPa NNW 3.7mph /  6km/h -999mph /  -1607.7km/h 56% 0.00in /  0mm
15:45 60.4 °F /  15.8 °C 46 °F /  7.8 °C 23.43in /  793.3hPa North 3.2mph /  5.1km/h -999mph /  -1607.7km/h 59% 0.00in /  0mm
16:00 63.9 °F /  17.7 °C 47.4 °F /  8.6 °C 23.42in /  793hPa NNE 5.3mph /  8.5km/h -999mph /  -1607.7km/h 55% 0.00in /  0mm
16:15 62.1 °F /  16.7 °C 45.7 °F /  7.6 °C 23.42in /  793hPa NE 2.7mph /  4.3km/h -999mph /  -1607.7km/h 55% 0.00in /  0mm
16:30 61.9 °F /  16.6 °C 45.6 °F /  7.6 °C 23.42in /  793hPa WNW 3.7mph /  6km/h -999mph /  -1607.7km/h 55% 0.00in /  0mm
16:46 62.2 °F /  16.8 °C 45.8 °F /  7.7 °C 23.42in /  793hPa NW 4.2mph /  6.8km/h -999mph /  -1607.7km/h 55% 0.00in /  0mm
17:01 61 °F /  16.1 °C 44.7 °F /  7.1 °C 23.42in /  793hPa NW 1.1mph /  1.8km/h -999mph /  -1607.7km/h 55% 0.00in /  0mm
17:16 60.1 °F /  15.6 °C 44.8 °F /  7.1 °C 23.42in /  793hPa NNW 2.7mph /  4.3km/h -999mph /  -1607.7km/h 57% 0.00in /  0mm
17:31 58.1 °F /  14.5 °C 46 °F /  7.8 °C 23.42in /  793hPa NW 2.7mph /  4.3km/h -999mph /  -1607.7km/h 64% 0.00in /  0mm
17:47 57.2 °F /  14 °C 45.1 °F /  7.3 °C 23.42in /  793hPa NW 1.1mph /  1.8km/h -999mph /  -1607.7km/h 64% 0.00in /  0mm
18:02 57.4 °F /  14.1 °C 46.1 °F /  7.8 °C 23.42in /  793hPa Calm   -999mph /  -1607.7km/h 66% 0.00in /  0mm
18:17 58.1 °F /  14.5 °C 45.6 °F /  7.6 °C 23.42in /  793hPa NNW 1.7mph /  2.7km/h -999mph /  -1607.7km/h 63% 0.00in /  0mm
18:32 57.6 °F /  14.2 °C 42.9 °F /  6.1 °C 23.42in /  793hPa Calm   -999mph /  -1607.7km/h 58% 0.00in /  0mm
18:47 59.2 °F /  15.1 °C 41.6 °F /  5.3 °C 23.42in /  793hPa WNW 2.2mph /  3.5km/h -999mph /  -1607.7km/h 52% 0.00in /  0mm
19:03 57.9 °F /  14.4 °C 45.4 °F /  7.4 °C 23.43in /  793.3hPa NW 3.2mph /  5.1km/h -999mph /  -1607.7km/h 63% 0.00in /  0mm
19:18 56.1 °F /  13.4 °C 43.3 °F /  6.3 °C 23.44in /  793.7hPa NNW 2.7mph /  4.3km/h -999mph /  -1607.7km/h 62% 0.00in /  0mm
19:34 55.2 °F /  12.9 °C 42.4 °F /  5.8 °C 23.44in /  793.7hPa Calm   -999mph /  -1607.7km/h 62% 0.00in /  0mm
19:49 54.3 °F /  12.4 °C 41.1 °F /  5.1 °C 23.44in /  793.7hPa Calm   -999mph /  -1607.7km/h 61% 0.00in /  0mm
20:04 53.2 °F /  11.8 °C 40.1 °F /  4.5 °C 23.44in /  793.7hPa Calm   -999mph /  -1607.7km/h 61% 0.00in /  0mm
20:19 51.8 °F /  11 °C 40.8 °F /  4.9 °C 23.44in /  793.7hPa Calm   -999mph /  -1607.7km/h 66% 0.00in /  0mm
20:34 50.5 °F /  10.3 °C 40.3 °F /  4.6 °C 23.43in /  793.3hPa Calm   -999mph /  -1607.7km/h 68% 0.00in /  0mm
20:50 49.6 °F /  9.8 °C 39.5 °F /  4.2 °C 23.44in /  793.7hPa Calm   -999mph /  -1607.7km/h 68% 0.00in /  0mm
21:05 48.7 °F /  9.3 °C 39.7 °F /  4.3 °C 23.45in /  794hPa Calm   -999mph /  -1607.7km/h 71% 0.00in /  0mm
21:20 47.8 °F /  8.8 °C 39.9 °F /  4.4 °C 23.45in /  794hPa South 2.2mph /  3.5km/h -999mph /  -1607.7km/h 74% 0.00in /  0mm
21:35 47.3 °F /  8.5 °C 39.8 °F /  4.3 °C 23.45in /  794hPa Calm   -999mph /  -1607.7km/h 75% 0.00in /  0mm
21:51 46.8 °F /  8.2 °C 40.3 °F /  4.6 °C 23.45in /  794hPa Calm   -999mph /  -1607.7km/h 78% 0.00in /  0mm
22:06 46.4 °F /  8 °C 40.2 °F /  4.6 °C 23.46in /  794.4hPa Calm   -999mph /  -1607.7km/h 79% 0.00in /  0mm
22:21 46.6 °F /  8.1 °C 40.4 °F /  4.7 °C 23.46in /  794.4hPa Calm   -999mph /  -1607.7km/h 79% 0.00in /  0mm
22:36 46.2 °F /  7.9 °C 40 °F /  4.4 °C 23.46in /  794.4hPa SSE 2.2mph /  3.5km/h -999mph /  -1607.7km/h 79% 0.00in /  0mm
22:51 46 °F /  7.8 °C 40.2 °F /  4.6 °C 23.45in /  794hPa Calm   -999mph /  -1607.7km/h 80% 0.00in /  0mm
23:07 45.5 °F /  7.5 °C 39.7 °F /  4.3 °C 23.45in /  794hPa SSE 2.2mph /  3.5km/h -999mph /  -1607.7km/h 80% 0.00in /  0mm
23:22 45.3 °F /  7.4 °C 40.1 °F /  4.5 °C 23.45in /  794hPa Calm   -999mph /  -1607.7km/h 82% 0.00in /  0mm
23:37 45.1 °F /  7.3 °C 40.2 °F /  4.6 °C 23.45in /  794hPa Calm   -999mph /  -1607.7km/h 83% 0.00in /  0mm
23:52 44.8 °F /  7.1 °C 40.6 °F /  4.8 °C 23.45in /  794hPa Calm   -999mph /  -1607.7km/h 85% 0.00in /  0mm
Big Bear CA Weather